sensor_id;sensor_type;location;lat;lon;timestamp;P1;durP1;ratioP1;P2;durP2;ratioP2
80313;SDS011;69628;47.516;18.828;2024-03-08T00:00:32;6.05;;;3.35;;
80313;SDS011;69628;47.516;18.828;2024-03-08T00:01:33;5.88;;;2.92;;
80313;SDS011;69628;47.516;18.828;2024-03-08T00:02:33;8.50;;;3.67;;
80313;SDS011;69628;47.516;18.828;2024-03-08T00:03:33;5.68;;;2.97;;
80313;SDS011;69628;47.516;18.828;2024-03-08T00:04:34;4.20;;;3.33;;
80313;SDS011;69628;47.516;18.828;2024-03-08T00:05:35;8.35;;;3.83;;
80313;SDS011;69628;47.516;18.828;2024-03-08T00:06:35;5.75;;;3.83;;
80313;SDS011;69628;47.516;18.828;2024-03-08T00:07:36;5.50;;;2.97;;
80313;SDS011;69628;47.516;18.828;2024-03-08T00:08:37;5.88;;;3.20;;
80313;SDS011;69628;47.516;18.828;2024-03-08T00:09:37;5.53;;;3.17;;
80313;SDS011;69628;47.516;18.828;2024-03-08T00:10:37;6.43;;;3.90;;
80313;SDS011;69628;47.516;18.828;2024-03-08T00:11:38;5.40;;;3.30;;
80313;SDS011;69628;47.516;18.828;2024-03-08T00:12:40;4.45;;;2.92;;
80313;SDS011;69628;47.516;18.828;2024-03-08T00:13:43;4.57;;;3.50;;
80313;SDS011;69628;47.516;18.828;2024-03-08T00:14:45;6.05;;;3.63;;
80313;SDS011;69628;47.516;18.828;2024-03-08T00:15:45;7.10;;;3.55;;
80313;SDS011;69628;47.516;18.828;2024-03-08T00:16:45;5.93;;;3.55;;
80313;SDS011;69628;47.516;18.828;2024-03-08T00:17:46;7.30;;;3.58;;
80313;SDS011;69628;47.516;18.828;2024-03-08T00:18:47;8.07;;;3.72;;
80313;SDS011;69628;47.516;18.828;2024-03-08T00:19:49;14.00;;;4.30;;
80313;SDS011;69628;47.516;18.828;2024-03-08T00:20:52;10.05;;;5.40;;
80313;SDS011;69628;47.516;18.828;2024-03-08T00:21:52;9.93;;;5.65;;
80313;SDS011;69628;47.516;18.828;2024-03-08T00:22:53;12.13;;;6.30;;
80313;SDS011;69628;47.516;18.828;2024-03-08T00:23:53;8.68;;;5.47;;
80313;SDS011;69628;47.516;18.828;2024-03-08T00:24:57;9.27;;;5.38;;
80313;SDS011;69628;47.516;18.828;2024-03-08T00:25:57;13.15;;;6.93;;
80313;SDS011;69628;47.516;18.828;2024-03-08T00:26:57;12.07;;;6.35;;
80313;SDS011;69628;47.516;18.828;2024-03-08T00:27:58;8.60;;;4.68;;
80313;SDS011;69628;47.516;18.828;2024-03-08T00:28:59;9.13;;;4.90;;
80313;SDS011;69628;47.516;18.828;2024-03-08T00:30:00;10.02;;;6.00;;
80313;SDS011;69628;47.516;18.828;2024-03-08T00:31:01;10.13;;;5.85;;
80313;SDS011;69628;47.516;18.828;2024-03-08T00:32:01;8.75;;;4.95;;
80313;SDS011;69628;47.516;18.828;2024-03-08T00:33:01;10.43;;;5.15;;
80313;SDS011;69628;47.516;18.828;2024-03-08T00:34:02;8.88;;;4.75;;
80313;SDS011;69628;47.516;18.828;2024-03-08T00:35:02;6.55;;;4.03;;
80313;SDS011;69628;47.516;18.828;2024-03-08T00:36:03;6.55;;;3.50;;
80313;SDS011;69628;47.516;18.828;2024-03-08T00:37:03;9.15;;;5.00;;
80313;SDS011;69628;47.516;18.828;2024-03-08T00:38:04;7.93;;;4.05;;
80313;SDS011;69628;47.516;18.828;2024-03-08T00:39:04;11.30;;;4.32;;
80313;SDS011;69628;47.516;18.828;2024-03-08T00:40:06;10.18;;;4.85;;
80313;SDS011;69628;47.516;18.828;2024-03-08T00:41:09;6.32;;;4.25;;
80313;SDS011;69628;47.516;18.828;2024-03-08T00:42:09;11.13;;;5.82;;
80313;SDS011;69628;47.516;18.828;2024-03-08T00:43:09;6.80;;;4.93;;
80313;SDS011;69628;47.516;18.828;2024-03-08T00:44:10;7.25;;;4.55;;
80313;SDS011;69628;47.516;18.828;2024-03-08T00:45:10;6.85;;;4.22;;
80313;SDS011;69628;47.516;18.828;2024-03-08T00:46:11;7.55;;;4.47;;
80313;SDS011;69628;47.516;18.828;2024-03-08T00:47:12;8.95;;;4.78;;
80313;SDS011;69628;47.516;18.828;2024-03-08T00:48:12;7.75;;;4.40;;
80313;SDS011;69628;47.516;18.828;2024-03-08T00:49:12;7.07;;;4.57;;
80313;SDS011;69628;47.516;18.828;2024-03-08T00:50:13;6.28;;;4.55;;
80313;SDS011;69628;47.516;18.828;2024-03-08T00:51:13;6.30;;;3.95;;
80313;SDS011;69628;47.516;18.828;2024-03-08T00:52:15;6.03;;;3.55;;
80313;SDS011;69628;47.516;18.828;2024-03-08T00:53:15;7.65;;;4.03;;
80313;SDS011;69628;47.516;18.828;2024-03-08T00:54:16;8.98;;;4.38;;
80313;SDS011;69628;47.516;18.828;2024-03-08T00:55:17;7.05;;;4.40;;
80313;SDS011;69628;47.516;18.828;2024-03-08T00:56:17;6.28;;;4.10;;
80313;SDS011;69628;47.516;18.828;2024-03-08T00:57:18;6.47;;;3.60;;
80313;SDS011;69628;47.516;18.828;2024-03-08T00:58:19;6.50;;;4.22;;
80313;SDS011;69628;47.516;18.828;2024-03-08T00:59:19;7.22;;;4.47;;
80313;SDS011;69628;47.516;18.828;2024-03-08T01:00:20;6.65;;;4.15;;
80313;SDS011;69628;47.516;18.828;2024-03-08T01:01:21;7.43;;;4.47;;
80313;SDS011;69628;47.516;18.828;2024-03-08T01:02:22;5.60;;;3.67;;
80313;SDS011;69628;47.516;18.828;2024-03-08T01:03:23;7.35;;;4.82;;
80313;SDS011;69628;47.516;18.828;2024-03-08T01:04:23;7.07;;;3.83;;
80313;SDS011;69628;47.516;18.828;2024-03-08T01:05:25;8.05;;;4.35;;
80313;SDS011;69628;47.516;18.828;2024-03-08T01:06:26;5.40;;;3.63;;
80313;SDS011;69628;47.516;18.828;2024-03-08T01:07:27;7.15;;;4.05;;
80313;SDS011;69628;47.516;18.828;2024-03-08T01:08:27;7.53;;;4.35;;
80313;SDS011;69628;47.516;18.828;2024-03-08T01:09:28;13.45;;;4.63;;
80313;SDS011;69628;47.516;18.828;2024-03-08T01:10:29;8.75;;;5.20;;
80313;SDS011;69628;47.516;18.828;2024-03-08T01:11:29;14.07;;;6.32;;
80313;SDS011;69628;47.516;18.828;2024-03-08T01:12:29;17.30;;;5.13;;
80313;SDS011;69628;47.516;18.828;2024-03-08T01:13:30;11.13;;;6.03;;
80313;SDS011;69628;47.516;18.828;2024-03-08T01:14:30;12.70;;;6.45;;
80313;SDS011;69628;47.516;18.828;2024-03-08T01:15:31;8.88;;;5.28;;
80313;SDS011;69628;47.516;18.828;2024-03-08T01:16:31;13.68;;;6.18;;
80313;SDS011;69628;47.516;18.828;2024-03-08T01:17:33;17.80;;;6.93;;
80313;SDS011;69628;47.516;18.828;2024-03-08T01:18:33;12.30;;;5.70;;
80313;SDS011;69628;47.516;18.828;2024-03-08T01:19:34;9.18;;;6.03;;
80313;SDS011;69628;47.516;18.828;2024-03-08T01:20:34;10.40;;;6.35;;
80313;SDS011;69628;47.516;18.828;2024-03-08T01:21:34;14.00;;;6.47;;
80313;SDS011;69628;47.516;18.828;2024-03-08T01:22:35;9.45;;;5.57;;
80313;SDS011;69628;47.516;18.828;2024-03-08T01:23:35;13.88;;;6.40;;
80313;SDS011;69628;47.516;18.828;2024-03-08T01:24:36;12.85;;;8.10;;
80313;SDS011;69628;47.516;18.828;2024-03-08T01:25:37;14.30;;;8.02;;
80313;SDS011;69628;47.516;18.828;2024-03-08T01:26:37;13.57;;;7.95;;
80313;SDS011;69628;47.516;18.828;2024-03-08T01:27:38;19.10;;;8.82;;
80313;SDS011;69628;47.516;18.828;2024-03-08T01:28:39;22.67;;;9.32;;
80313;SDS011;69628;47.516;18.828;2024-03-08T01:29:39;17.58;;;8.10;;
80313;SDS011;69628;47.516;18.828;2024-03-08T01:30:39;18.25;;;8.63;;
80313;SDS011;69628;47.516;18.828;2024-03-08T01:31:40;19.50;;;8.30;;
80313;SDS011;69628;47.516;18.828;2024-03-08T01:32:40;14.40;;;8.25;;
80313;SDS011;69628;47.516;18.828;2024-03-08T01:33:41;18.15;;;9.63;;
80313;SDS011;69628;47.516;18.828;2024-03-08T01:34:41;14.27;;;6.85;;
80313;SDS011;69628;47.516;18.828;2024-03-08T01:35:42;19.50;;;8.15;;
80313;SDS011;69628;47.516;18.828;2024-03-08T01:36:42;21.42;;;7.85;;
80313;SDS011;69628;47.516;18.828;2024-03-08T01:37:43;18.10;;;8.98;;
80313;SDS011;69628;47.516;18.828;2024-03-08T01:38:43;17.67;;;7.82;;
80313;SDS011;69628;47.516;18.828;2024-03-08T01:39:43;16.45;;;8.90;;
80313;SDS011;69628;47.516;18.828;2024-03-08T01:40:44;15.18;;;7.93;;
80313;SDS011;69628;47.516;18.828;2024-03-08T01:41:44;17.98;;;9.02;;
80313;SDS011;69628;47.516;18.828;2024-03-08T01:42:45;15.57;;;7.60;;
80313;SDS011;69628;47.516;18.828;2024-03-08T01:43:45;16.13;;;9.02;;
80313;SDS011;69628;47.516;18.828;2024-03-08T01:44:46;19.45;;;10.27;;
80313;SDS011;69628;47.516;18.828;2024-03-08T01:45:46;13.38;;;8.32;;
80313;SDS011;69628;47.516;18.828;2024-03-08T01:46:47;19.50;;;9.55;;
80313;SDS011;69628;47.516;18.828;2024-03-08T01:47:48;18.65;;;8.73;;
80313;SDS011;69628;47.516;18.828;2024-03-08T01:48:49;22.63;;;8.93;;
80313;SDS011;69628;47.516;18.828;2024-03-08T01:49:51;17.10;;;9.27;;
80313;SDS011;69628;47.516;18.828;2024-03-08T01:50:52;19.70;;;9.40;;
80313;SDS011;69628;47.516;18.828;2024-03-08T01:51:54;17.10;;;8.30;;
80313;SDS011;69628;47.516;18.828;2024-03-08T01:52:56;20.45;;;10.57;;
80313;SDS011;69628;47.516;18.828;2024-03-08T01:53:59;22.40;;;8.52;;
80313;SDS011;69628;47.516;18.828;2024-03-08T01:55:01;19.05;;;10.35;;
80313;SDS011;69628;47.516;18.828;2024-03-08T01:56:09;16.13;;;8.25;;
80313;SDS011;69628;47.516;18.828;2024-03-08T01:57:09;19.48;;;9.98;;
80313;SDS011;69628;47.516;18.828;2024-03-08T01:58:10;20.52;;;9.77;;
80313;SDS011;69628;47.516;18.828;2024-03-08T01:59:12;15.73;;;9.15;;
80313;SDS011;69628;47.516;18.828;2024-03-08T02:00:14;17.05;;;9.70;;
80313;SDS011;69628;47.516;18.828;2024-03-08T02:01:16;21.55;;;9.82;;
80313;SDS011;69628;47.516;18.828;2024-03-08T02:02:16;22.00;;;10.48;;
80313;SDS011;69628;47.516;18.828;2024-03-08T02:03:18;16.10;;;8.25;;
80313;SDS011;69628;47.516;18.828;2024-03-08T02:04:19;23.80;;;8.98;;
80313;SDS011;69628;47.516;18.828;2024-03-08T02:05:21;19.67;;;9.35;;
80313;SDS011;69628;47.516;18.828;2024-03-08T02:06:23;24.20;;;10.23;;
80313;SDS011;69628;47.516;18.828;2024-03-08T02:07:24;20.35;;;9.95;;
80313;SDS011;69628;47.516;18.828;2024-03-08T02:08:24;20.23;;;9.60;;
80313;SDS011;69628;47.516;18.828;2024-03-08T02:09:24;24.27;;;10.02;;
80313;SDS011;69628;47.516;18.828;2024-03-08T02:10:25;15.73;;;9.50;;
80313;SDS011;69628;47.516;18.828;2024-03-08T02:11:25;27.50;;;11.98;;
80313;SDS011;69628;47.516;18.828;2024-03-08T02:12:26;12.45;;;7.80;;
80313;SDS011;69628;47.516;18.828;2024-03-08T02:13:26;17.20;;;8.30;;
80313;SDS011;69628;47.516;18.828;2024-03-08T02:14:27;17.00;;;9.85;;
80313;SDS011;69628;47.516;18.828;2024-03-08T02:16:51;18.77;;;8.52;;
80313;SDS011;69628;47.516;18.828;2024-03-08T02:17:51;18.75;;;9.25;;
80313;SDS011;69628;47.516;18.828;2024-03-08T02:18:53;21.50;;;9.55;;
80313;SDS011;69628;47.516;18.828;2024-03-08T02:19:53;23.80;;;10.52;;
80313;SDS011;69628;47.516;18.828;2024-03-08T02:21:58;22.08;;;11.85;;
80313;SDS011;69628;47.516;18.828;2024-03-08T02:22:59;28.02;;;11.70;;
80313;SDS011;69628;47.516;18.828;2024-03-08T02:23:59;23.75;;;10.48;;
80313;SDS011;69628;47.516;18.828;2024-03-08T02:25:00;20.80;;;9.45;;
80313;SDS011;69628;47.516;18.828;2024-03-08T02:26:03;24.02;;;10.10;;
80313;SDS011;69628;47.516;18.828;2024-03-08T02:27:04;21.23;;;10.45;;
80313;SDS011;69628;47.516;18.828;2024-03-08T02:28:05;29.92;;;12.85;;
80313;SDS011;69628;47.516;18.828;2024-03-08T02:29:05;32.35;;;11.55;;
80313;SDS011;69628;47.516;18.828;2024-03-08T02:30:06;21.30;;;9.07;;
80313;SDS011;69628;47.516;18.828;2024-03-08T02:31:07;23.05;;;9.38;;
80313;SDS011;69628;47.516;18.828;2024-03-08T02:32:08;24.90;;;11.02;;
80313;SDS011;69628;47.516;18.828;2024-03-08T02:33:08;16.80;;;8.52;;
80313;SDS011;69628;47.516;18.828;2024-03-08T02:34:09;25.17;;;12.30;;
80313;SDS011;69628;47.516;18.828;2024-03-08T02:35:09;22.50;;;10.43;;
80313;SDS011;69628;47.516;18.828;2024-03-08T02:36:10;22.92;;;10.20;;
80313;SDS011;69628;47.516;18.828;2024-03-08T02:37:11;20.80;;;11.10;;
80313;SDS011;69628;47.516;18.828;2024-03-08T02:38:13;23.27;;;8.60;;
80313;SDS011;69628;47.516;18.828;2024-03-08T02:39:16;22.83;;;11.45;;
80313;SDS011;69628;47.516;18.828;2024-03-08T02:40:16;18.42;;;10.23;;
80313;SDS011;69628;47.516;18.828;2024-03-08T02:41:16;22.40;;;11.43;;
80313;SDS011;69628;47.516;18.828;2024-03-08T02:42:17;24.35;;;9.93;;
80313;SDS011;69628;47.516;18.828;2024-03-08T02:43:18;19.40;;;8.77;;
80313;SDS011;69628;47.516;18.828;2024-03-08T02:44:19;29.90;;;11.98;;
80313;SDS011;69628;47.516;18.828;2024-03-08T02:45:21;21.17;;;9.70;;
80313;SDS011;69628;47.516;18.828;2024-03-08T02:46:22;30.92;;;10.38;;
80313;SDS011;69628;47.516;18.828;2024-03-08T02:47:22;28.65;;;11.50;;
80313;SDS011;69628;47.516;18.828;2024-03-08T02:48:22;25.33;;;9.30;;
80313;SDS011;69628;47.516;18.828;2024-03-08T02:49:23;26.48;;;10.50;;
80313;SDS011;69628;47.516;18.828;2024-03-08T02:50:23;21.92;;;10.32;;
80313;SDS011;69628;47.516;18.828;2024-03-08T02:51:25;19.20;;;9.85;;
80313;SDS011;69628;47.516;18.828;2024-03-08T02:52:26;31.35;;;10.60;;
80313;SDS011;69628;47.516;18.828;2024-03-08T02:53:27;26.17;;;10.88;;
80313;SDS011;69628;47.516;18.828;2024-03-08T02:54:27;28.50;;;12.15;;
80313;SDS011;69628;47.516;18.828;2024-03-08T02:55:28;20.48;;;10.05;;
80313;SDS011;69628;47.516;18.828;2024-03-08T02:56:29;23.02;;;9.98;;
80313;SDS011;69628;47.516;18.828;2024-03-08T02:57:30;26.52;;;9.65;;
80313;SDS011;69628;47.516;18.828;2024-03-08T02:58:30;23.52;;;11.35;;
80313;SDS011;69628;47.516;18.828;2024-03-08T02:59:30;40.03;;;13.23;;
80313;SDS011;69628;47.516;18.828;2024-03-08T03:00:31;38.25;;;14.05;;
80313;SDS011;69628;47.516;18.828;2024-03-08T03:01:33;26.83;;;10.65;;
80313;SDS011;69628;47.516;18.828;2024-03-08T03:02:33;23.63;;;10.70;;
80313;SDS011;69628;47.516;18.828;2024-03-08T03:03:33;22.70;;;10.55;;
80313;SDS011;69628;47.516;18.828;2024-03-08T03:04:34;22.65;;;11.20;;
80313;SDS011;69628;47.516;18.828;2024-03-08T03:05:34;22.63;;;11.45;;
80313;SDS011;69628;47.516;18.828;2024-03-08T03:06:35;30.45;;;11.27;;
80313;SDS011;69628;47.516;18.828;2024-03-08T03:07:35;22.88;;;11.27;;
80313;SDS011;69628;47.516;18.828;2024-03-08T03:08:36;20.13;;;10.10;;
80313;SDS011;69628;47.516;18.828;2024-03-08T03:09:36;27.98;;;11.18;;
80313;SDS011;69628;47.516;18.828;2024-03-08T03:10:37;25.63;;;10.80;;
80313;SDS011;69628;47.516;18.828;2024-03-08T03:11:37;23.30;;;10.50;;
80313;SDS011;69628;47.516;18.828;2024-03-08T03:12:37;32.83;;;11.15;;
80313;SDS011;69628;47.516;18.828;2024-03-08T03:13:38;18.70;;;9.25;;
80313;SDS011;69628;47.516;18.828;2024-03-08T03:14:39;24.17;;;11.77;;
80313;SDS011;69628;47.516;18.828;2024-03-08T03:15:39;33.00;;;11.60;;
80313;SDS011;69628;47.516;18.828;2024-03-08T03:16:42;20.58;;;10.23;;
80313;SDS011;69628;47.516;18.828;2024-03-08T03:17:47;29.67;;;11.82;;
80313;SDS011;69628;47.516;18.828;2024-03-08T03:18:48;25.10;;;9.05;;
80313;SDS011;69628;47.516;18.828;2024-03-08T03:19:49;32.63;;;13.07;;
80313;SDS011;69628;47.516;18.828;2024-03-08T03:20:49;27.85;;;10.48;;
80313;SDS011;69628;47.516;18.828;2024-03-08T03:21:50;31.17;;;12.90;;
80313;SDS011;69628;47.516;18.828;2024-03-08T03:22:52;25.42;;;10.93;;
80313;SDS011;69628;47.516;18.828;2024-03-08T03:23:53;23.00;;;10.98;;
80313;SDS011;69628;47.516;18.828;2024-03-08T03:24:53;29.88;;;11.00;;
80313;SDS011;69628;47.516;18.828;2024-03-08T03:25:53;33.28;;;11.35;;
80313;SDS011;69628;47.516;18.828;2024-03-08T03:26:57;26.20;;;10.93;;
80313;SDS011;69628;47.516;18.828;2024-03-08T03:27:57;24.33;;;10.32;;
80313;SDS011;69628;47.516;18.828;2024-03-08T03:28:58;24.83;;;11.20;;
80313;SDS011;69628;47.516;18.828;2024-03-08T03:30:00;28.13;;;11.15;;
80313;SDS011;69628;47.516;18.828;2024-03-08T03:31:20;21.85;;;9.68;;
80313;SDS011;69628;47.516;18.828;2024-03-08T03:32:24;19.80;;;8.48;;
80313;SDS011;69628;47.516;18.828;2024-03-08T03:33:24;24.45;;;9.98;;
80313;SDS011;69628;47.516;18.828;2024-03-08T03:34:25;32.63;;;10.50;;
80313;SDS011;69628;47.516;18.828;2024-03-08T03:35:26;23.45;;;11.57;;
80313;SDS011;69628;47.516;18.828;2024-03-08T03:36:27;26.48;;;11.73;;
80313;SDS011;69628;47.516;18.828;2024-03-08T03:37:28;27.63;;;10.18;;
80313;SDS011;69628;47.516;18.828;2024-03-08T03:38:29;21.27;;;9.95;;
80313;SDS011;69628;47.516;18.828;2024-03-08T03:39:29;22.83;;;10.70;;
80313;SDS011;69628;47.516;18.828;2024-03-08T03:40:34;17.48;;;8.63;;
80313;SDS011;69628;47.516;18.828;2024-03-08T03:41:34;28.02;;;11.30;;
80313;SDS011;69628;47.516;18.828;2024-03-08T03:42:35;21.40;;;11.52;;
80313;SDS011;69628;47.516;18.828;2024-03-08T03:43:38;28.52;;;11.27;;
80313;SDS011;69628;47.516;18.828;2024-03-08T03:44:38;22.55;;;10.38;;
80313;SDS011;69628;47.516;18.828;2024-03-08T03:45:39;39.45;;;11.55;;
80313;SDS011;69628;47.516;18.828;2024-03-08T03:46:41;27.63;;;11.80;;
80313;SDS011;69628;47.516;18.828;2024-03-08T03:47:44;21.50;;;10.65;;
80313;SDS011;69628;47.516;18.828;2024-03-08T03:48:44;19.90;;;9.32;;
80313;SDS011;69628;47.516;18.828;2024-03-08T03:49:44;23.63;;;11.38;;
80313;SDS011;69628;47.516;18.828;2024-03-08T03:50:45;30.40;;;11.10;;
80313;SDS011;69628;47.516;18.828;2024-03-08T03:51:45;21.05;;;11.07;;
80313;SDS011;69628;47.516;18.828;2024-03-08T03:52:46;24.30;;;11.43;;
80313;SDS011;69628;47.516;18.828;2024-03-08T03:53:47;26.83;;;10.98;;
80313;SDS011;69628;47.516;18.828;2024-03-08T03:54:48;22.75;;;10.27;;
80313;SDS011;69628;47.516;18.828;2024-03-08T03:55:49;24.70;;;10.45;;
80313;SDS011;69628;47.516;18.828;2024-03-08T03:56:49;36.40;;;11.60;;
80313;SDS011;69628;47.516;18.828;2024-03-08T03:57:52;28.02;;;11.05;;
80313;SDS011;69628;47.516;18.828;2024-03-08T03:58:53;23.33;;;11.75;;
80313;SDS011;69628;47.516;18.828;2024-03-08T03:59:53;23.58;;;12.65;;
80313;SDS011;69628;47.516;18.828;2024-03-08T04:00:53;23.90;;;11.90;;
80313;SDS011;69628;47.516;18.828;2024-03-08T04:01:54;27.55;;;10.65;;
80313;SDS011;69628;47.516;18.828;2024-03-08T04:02:54;25.83;;;11.57;;
80313;SDS011;69628;47.516;18.828;2024-03-08T04:03:58;25.15;;;11.63;;
80313;SDS011;69628;47.516;18.828;2024-03-08T04:04:59;22.30;;;11.57;;
80313;SDS011;69628;47.516;18.828;2024-03-08T04:05:59;24.58;;;10.68;;
80313;SDS011;69628;47.516;18.828;2024-03-08T04:07:01;23.92;;;10.75;;
80313;SDS011;69628;47.516;18.828;2024-03-08T04:08:02;27.10;;;11.25;;
80313;SDS011;69628;47.516;18.828;2024-03-08T04:09:03;25.77;;;10.52;;
80313;SDS011;69628;47.516;18.828;2024-03-08T04:10:05;26.90;;;11.77;;
80313;SDS011;69628;47.516;18.828;2024-03-08T04:11:07;22.90;;;9.35;;
80313;SDS011;69628;47.516;18.828;2024-03-08T04:12:08;31.35;;;11.32;;
80313;SDS011;69628;47.516;18.828;2024-03-08T04:13:09;22.00;;;10.85;;
80313;SDS011;69628;47.516;18.828;2024-03-08T04:14:10;27.58;;;12.90;;
80313;SDS011;69628;47.516;18.828;2024-03-08T04:15:10;32.35;;;12.30;;
80313;SDS011;69628;47.516;18.828;2024-03-08T04:16:11;25.60;;;11.13;;
80313;SDS011;69628;47.516;18.828;2024-03-08T04:17:11;18.23;;;8.95;;
80313;SDS011;69628;47.516;18.828;2024-03-08T04:18:12;34.83;;;12.43;;
80313;SDS011;69628;47.516;18.828;2024-03-08T04:19:12;29.20;;;11.38;;
80313;SDS011;69628;47.516;18.828;2024-03-08T04:20:13;23.73;;;10.50;;
80313;SDS011;69628;47.516;18.828;2024-03-08T04:21:14;21.00;;;10.20;;
80313;SDS011;69628;47.516;18.828;2024-03-08T04:22:15;22.13;;;10.98;;
80313;SDS011;69628;47.516;18.828;2024-03-08T04:23:16;25.30;;;11.10;;
80313;SDS011;69628;47.516;18.828;2024-03-08T04:24:18;21.17;;;11.05;;
80313;SDS011;69628;47.516;18.828;2024-03-08T04:25:18;19.42;;;10.98;;
80313;SDS011;69628;47.516;18.828;2024-03-08T04:26:18;22.50;;;11.55;;
80313;SDS011;69628;47.516;18.828;2024-03-08T04:27:19;24.65;;;10.45;;
80313;SDS011;69628;47.516;18.828;2024-03-08T04:28:19;25.83;;;13.60;;
80313;SDS011;69628;47.516;18.828;2024-03-08T04:29:22;33.95;;;11.95;;
80313;SDS011;69628;47.516;18.828;2024-03-08T04:30:22;28.17;;;11.52;;
80313;SDS011;69628;47.516;18.828;2024-03-08T04:31:23;26.88;;;11.15;;
80313;SDS011;69628;47.516;18.828;2024-03-08T04:32:23;30.02;;;12.15;;
80313;SDS011;69628;47.516;18.828;2024-03-08T04:33:24;28.38;;;11.85;;
80313;SDS011;69628;47.516;18.828;2024-03-08T04:34:24;26.88;;;12.43;;
80313;SDS011;69628;47.516;18.828;2024-03-08T04:35:24;28.08;;;12.50;;
80313;SDS011;69628;47.516;18.828;2024-03-08T04:36:25;25.77;;;11.63;;
80313;SDS011;69628;47.516;18.828;2024-03-08T04:37:26;29.30;;;11.27;;
80313;SDS011;69628;47.516;18.828;2024-03-08T04:38:26;22.67;;;11.88;;
80313;SDS011;69628;47.516;18.828;2024-03-08T04:39:26;20.58;;;11.75;;
80313;SDS011;69628;47.516;18.828;2024-03-08T04:40:30;29.05;;;11.35;;
80313;SDS011;69628;47.516;18.828;2024-03-08T04:41:31;28.20;;;11.85;;
80313;SDS011;69628;47.516;18.828;2024-03-08T04:42:34;29.08;;;11.18;;
80313;SDS011;69628;47.516;18.828;2024-03-08T04:43:35;27.20;;;12.23;;
80313;SDS011;69628;47.516;18.828;2024-03-08T04:44:36;27.67;;;13.70;;
80313;SDS011;69628;47.516;18.828;2024-03-08T04:45:37;24.65;;;10.85;;
80313;SDS011;69628;47.516;18.828;2024-03-08T04:46:39;26.67;;;12.02;;
80313;SDS011;69628;47.516;18.828;2024-03-08T04:47:39;30.77;;;13.25;;
80313;SDS011;69628;47.516;18.828;2024-03-08T04:48:42;23.85;;;12.15;;
80313;SDS011;69628;47.516;18.828;2024-03-08T04:49:43;24.80;;;10.95;;
80313;SDS011;69628;47.516;18.828;2024-03-08T04:50:43;29.15;;;13.65;;
80313;SDS011;69628;47.516;18.828;2024-03-08T04:51:44;35.38;;;13.82;;
80313;SDS011;69628;47.516;18.828;2024-03-08T04:52:45;31.70;;;10.77;;
80313;SDS011;69628;47.516;18.828;2024-03-08T04:53:46;23.70;;;11.57;;
80313;SDS011;69628;47.516;18.828;2024-03-08T04:54:46;24.35;;;11.85;;
80313;SDS011;69628;47.516;18.828;2024-03-08T04:55:47;24.30;;;11.70;;
80313;SDS011;69628;47.516;18.828;2024-03-08T04:56:47;27.33;;;11.40;;
80313;SDS011;69628;47.516;18.828;2024-03-08T04:57:48;22.83;;;12.90;;
80313;SDS011;69628;47.516;18.828;2024-03-08T04:58:48;30.88;;;11.30;;
80313;SDS011;69628;47.516;18.828;2024-03-08T04:59:49;23.48;;;10.30;;
80313;SDS011;69628;47.516;18.828;2024-03-08T05:00:49;26.38;;;12.10;;
80313;SDS011;69628;47.516;18.828;2024-03-08T05:01:50;25.35;;;13.38;;
80313;SDS011;69628;47.516;18.828;2024-03-08T05:02:51;28.52;;;11.43;;
80313;SDS011;69628;47.516;18.828;2024-03-08T05:03:53;32.33;;;12.52;;
80313;SDS011;69628;47.516;18.828;2024-03-08T05:04:55;30.65;;;13.00;;
80313;SDS011;69628;47.516;18.828;2024-03-08T05:05:55;25.35;;;10.77;;
80313;SDS011;69628;47.516;18.828;2024-03-08T05:06:56;28.55;;;13.02;;
80313;SDS011;69628;47.516;18.828;2024-03-08T05:07:57;23.00;;;13.75;;
80313;SDS011;69628;47.516;18.828;2024-03-08T05:08:57;30.38;;;14.30;;
80313;SDS011;69628;47.516;18.828;2024-03-08T05:09:58;29.25;;;11.82;;
80313;SDS011;69628;47.516;18.828;2024-03-08T05:11:02;22.90;;;11.93;;
80313;SDS011;69628;47.516;18.828;2024-03-08T05:12:03;29.73;;;11.85;;
80313;SDS011;69628;47.516;18.828;2024-03-08T05:13:04;25.60;;;13.93;;
80313;SDS011;69628;47.516;18.828;2024-03-08T05:14:04;25.88;;;11.70;;
80313;SDS011;69628;47.516;18.828;2024-03-08T05:15:05;29.98;;;12.93;;
80313;SDS011;69628;47.516;18.828;2024-03-08T05:16:07;21.98;;;10.65;;
80313;SDS011;69628;47.516;18.828;2024-03-08T05:17:08;20.88;;;11.15;;
80313;SDS011;69628;47.516;18.828;2024-03-08T05:18:08;25.33;;;12.52;;
80313;SDS011;69628;47.516;18.828;2024-03-08T05:19:11;24.02;;;12.27;;
80313;SDS011;69628;47.516;18.828;2024-03-08T05:20:11;33.72;;;14.20;;
80313;SDS011;69628;47.516;18.828;2024-03-08T05:21:13;38.80;;;13.10;;
80313;SDS011;69628;47.516;18.828;2024-03-08T05:22:13;33.42;;;13.20;;
80313;SDS011;69628;47.516;18.828;2024-03-08T05:23:14;28.98;;;12.38;;
80313;SDS011;69628;47.516;18.828;2024-03-08T05:24:15;33.10;;;12.93;;
80313;SDS011;69628;47.516;18.828;2024-03-08T05:25:16;29.52;;;13.60;;
80313;SDS011;69628;47.516;18.828;2024-03-08T05:26:17;28.08;;;13.70;;
80313;SDS011;69628;47.516;18.828;2024-03-08T05:27:18;34.78;;;13.38;;
80313;SDS011;69628;47.516;18.828;2024-03-08T05:28:18;38.78;;;11.95;;
80313;SDS011;69628;47.516;18.828;2024-03-08T05:29:20;27.40;;;12.85;;
80313;SDS011;69628;47.516;18.828;2024-03-08T05:30:20;29.90;;;14.00;;
80313;SDS011;69628;47.516;18.828;2024-03-08T05:31:21;38.53;;;13.48;;
80313;SDS011;69628;47.516;18.828;2024-03-08T05:32:25;27.40;;;12.30;;
80313;SDS011;69628;47.516;18.828;2024-03-08T05:33:26;30.90;;;14.85;;
80313;SDS011;69628;47.516;18.828;2024-03-08T05:34:26;28.90;;;12.98;;
80313;SDS011;69628;47.516;18.828;2024-03-08T05:35:28;30.80;;;12.52;;
80313;SDS011;69628;47.516;18.828;2024-03-08T05:36:29;30.05;;;12.98;;
80313;SDS011;69628;47.516;18.828;2024-03-08T05:37:30;31.40;;;12.80;;
80313;SDS011;69628;47.516;18.828;2024-03-08T05:38:31;26.85;;;11.60;;
80313;SDS011;69628;47.516;18.828;2024-03-08T05:39:31;28.20;;;14.40;;
80313;SDS011;69628;47.516;18.828;2024-03-08T05:40:32;34.13;;;13.40;;
80313;SDS011;69628;47.516;18.828;2024-03-08T05:41:32;26.58;;;13.45;;
80313;SDS011;69628;47.516;18.828;2024-03-08T05:42:33;31.55;;;13.38;;
80313;SDS011;69628;47.516;18.828;2024-03-08T05:43:33;30.85;;;13.02;;
80313;SDS011;69628;47.516;18.828;2024-03-08T05:44:34;33.55;;;13.15;;
80313;SDS011;69628;47.516;18.828;2024-03-08T05:45:34;23.35;;;10.70;;
80313;SDS011;69628;47.516;18.828;2024-03-08T05:46:34;31.35;;;14.35;;
80313;SDS011;69628;47.516;18.828;2024-03-08T05:47:39;40.55;;;14.80;;
80313;SDS011;69628;47.516;18.828;2024-03-08T05:48:39;25.45;;;11.32;;
80313;SDS011;69628;47.516;18.828;2024-03-08T05:49:39;27.73;;;12.02;;
80313;SDS011;69628;47.516;18.828;2024-03-08T05:50:40;29.77;;;12.77;;
80313;SDS011;69628;47.516;18.828;2024-03-08T05:51:40;23.83;;;10.23;;
80313;SDS011;69628;47.516;18.828;2024-03-08T05:52:41;23.15;;;10.63;;
80313;SDS011;69628;47.516;18.828;2024-03-08T05:53:41;29.90;;;13.30;;
80313;SDS011;69628;47.516;18.828;2024-03-08T05:54:41;32.58;;;13.88;;
80313;SDS011;69628;47.516;18.828;2024-03-08T05:55:43;26.90;;;12.43;;
80313;SDS011;69628;47.516;18.828;2024-03-08T05:56:44;24.42;;;12.00;;